createdAt,value
2022-08-22T05:04:24.477Z,13.95
2022-08-22T05:09:31.877Z,15.55
2022-08-22T05:14:43.533Z,12.50
2022-08-22T05:19:53.152Z,18.03
2022-08-22T05:25:01.490Z,17.30
2022-08-22T05:30:13.546Z,22.98
2022-08-22T05:35:19.573Z,17.33
2022-08-22T05:40:29.121Z,16.40
2022-08-22T05:45:34.540Z,23.95
2022-08-22T05:50:43.255Z,17.77
2022-08-22T05:56:12.549Z,16.13
2022-08-22T06:01:34.495Z,22.25
2022-08-22T06:06:48.089Z,17.67
2022-08-22T06:12:05.347Z,18.58
2022-08-22T06:17:23.058Z,19.17
2022-08-22T06:22:33.970Z,15.68
2022-08-22T06:27:37.909Z,16.48
2022-08-22T06:32:59.564Z,17.85
2022-08-22T06:43:06.296Z,14.40
2022-08-22T06:48:08.478Z,18.92
2022-08-22T06:53:38.439Z,16.40
2022-08-22T06:58:50.935Z,20.48
2022-08-22T07:04:05.209Z,17.65
2022-08-22T07:09:20.870Z,25.45
2022-08-22T07:14:32.468Z,21.42
2022-08-22T07:20:31.704Z,19.40
2022-08-22T07:25:54.278Z,21.40
2022-08-22T07:43:31.610Z,25.15
2022-08-22T07:49:09.886Z,25.05
2022-08-22T07:54:17.254Z,13.55
2022-08-22T07:59:21.448Z,21.10
2022-08-22T08:04:30.401Z,20.70
2022-08-22T08:09:41.144Z,20.98
2022-08-22T08:14:51.734Z,17.90
2022-08-22T08:19:55.442Z,16.92
2022-08-22T08:25:02.739Z,17.45
2022-08-22T08:30:35.591Z,18.33
2022-08-22T08:36:03.489Z,23.40
2022-08-22T08:41:37.639Z,18.77
2022-08-22T08:47:18.982Z,20.30
2022-08-22T08:52:31.800Z,20.48
2022-08-22T08:57:54.891Z,15.40
2022-08-22T09:03:31.114Z,22.45
2022-08-22T09:09:04.391Z,18.42
2022-08-22T09:14:54.116Z,16.63
2022-08-22T09:20:02.323Z,13.82
2022-08-22T09:25:49.864Z,15.10
2022-08-22T09:31:21.807Z,20.05
2022-08-22T09:37:08.037Z,16.83
2022-08-22T09:42:38.169Z,14.88
2022-08-22T09:48:27.613Z,14.63
2022-08-22T09:53:50.983Z,25.55
2022-08-22T09:59:05.005Z,10.70
2022-08-22T10:04:47.977Z,14.63
2022-08-22T10:10:27.361Z,10.20
2022-08-22T10:17:08.997Z,8.95
2022-08-22T10:22:21.260Z,9.15
2022-08-22T10:28:12.466Z,8.73
2022-08-22T10:33:34.827Z,9.35
2022-08-22T10:38:47.066Z,9.93
2022-08-22T10:44:28.319Z,6.90
2022-08-22T10:50:39.306Z,11.25
2022-08-22T10:56:04.864Z,6.00
2022-08-22T11:01:40.503Z,10.57
2022-08-22T11:07:07.731Z,9.45
2022-08-22T11:12:45.736Z,9.45
2022-08-22T11:18:14.873Z,10.52
2022-08-22T11:23:55.625Z,11.52
2022-08-22T11:36:08.721Z,11.15
2022-08-22T11:41:43.229Z,7.50
2022-08-22T11:46:50.079Z,10.18
2022-08-22T11:52:24.365Z,9.55
2022-08-22T11:58:20.028Z,6.30
2022-08-22T12:03:32.642Z,10.80
2022-08-22T12:09:24.803Z,13.18
2022-08-22T12:15:18.359Z,9.20
2022-08-22T12:20:41.464Z,10.93
2022-08-22T12:26:57.703Z,8.82
2022-08-22T12:32:43.900Z,8.52
2022-08-22T12:38:28.002Z,12.77
2022-08-22T12:43:47.109Z,8.95
2022-08-22T12:49:23.186Z,9.90
2022-08-22T12:54:50.182Z,9.40
2022-08-22T13:00:26.759Z,7.00
2022-08-22T13:05:37.886Z,10.65
2022-08-22T13:10:48.706Z,12.48
2022-08-22T13:22:45.449Z,10.25
2022-08-22T13:27:52.247Z,8.88
2022-08-22T13:33:04.926Z,10.23
2022-08-22T13:38:50.282Z,9.45
2022-08-22T13:44:15.619Z,8.68
2022-08-22T13:49:35.848Z,11.45
2022-08-22T13:55:02.635Z,8.35
2022-08-22T14:00:39.257Z,8.95
2022-08-22T14:06:37.277Z,7.35
2022-08-22T14:11:51.808Z,6.33
2022-08-22T14:16:58.560Z,6.88
2022-08-22T14:22:08.353Z,7.20
2022-08-22T14:27:46.685Z,8.50
2022-08-22T14:33:00.700Z,7.18
2022-08-22T14:38:37.216Z,10.27
2022-08-22T14:43:53.263Z,6.03
2022-08-22T14:49:19.382Z,8.15
2022-08-22T14:54:29.055Z,7.05
2022-08-22T14:59:50.171Z,7.30
2022-08-22T15:04:55.053Z,6.32
2022-08-22T15:10:11.755Z,6.38
2022-08-22T15:15:29.990Z,7.82
2022-08-22T15:20:45.420Z,9.05
2022-08-22T15:26:18.803Z,7.18
2022-08-22T15:31:22.378Z,10.45
2022-08-22T15:36:27.440Z,6.45
2022-08-22T15:41:44.285Z,10.27
2022-08-22T15:47:34.844Z,7.65
2022-08-22T15:53:10.421Z,7.83
2022-08-22T15:58:22.770Z,7.88
2022-08-22T16:03:32.424Z,5.20
2022-08-22T16:08:37.411Z,6.05
2022-08-22T16:13:44.269Z,7.10
2022-08-22T16:18:49.412Z,6.20
2022-08-22T16:23:52.963Z,9.93
2022-08-22T16:29:07.369Z,7.35
2022-08-22T16:34:18.534Z,14.80
2022-08-22T16:39:23.776Z,7.05
2022-08-22T16:44:28.624Z,9.93
2022-08-22T16:49:37.036Z,6.60
2022-08-22T16:54:47.001Z,6.60
2022-08-22T17:00:27.629Z,5.35
2022-08-22T17:05:59.861Z,6.53
2022-08-22T17:11:22.966Z,7.97
2022-08-22T17:17:10.494Z,8.13
2022-08-22T17:22:30.123Z,11.13
2022-08-22T17:27:44.440Z,6.93
2022-08-22T17:33:17.568Z,5.25
2022-08-22T17:38:42.096Z,6.75
2022-08-22T17:44:05.875Z,7.32
2022-08-22T17:49:55.997Z,5.22
2022-08-22T17:55:19.150Z,7.53
2022-08-22T18:00:31.827Z,7.30
2022-08-22T18:06:17.185Z,12.38
2022-08-22T18:11:40.068Z,6.95
2022-08-22T18:16:46.407Z,8.95
2022-08-22T18:22:19.486Z,6.35
2022-08-22T18:27:35.786Z,7.55
2022-08-22T18:33:01.364Z,12.05
2022-08-22T18:38:21.011Z,5.72
2022-08-22T18:43:48.227Z,9.25
2022-08-22T18:49:14.036Z,14.00
2022-08-22T18:59:54.837Z,11.43
2022-08-22T19:05:51.614Z,6.65
2022-08-22T19:11:56.471Z,6.50
